Flight Track Log - Related Links

Times and Time Zones

All times are in EDT time to prevent confusion due to time zone crossing. See the JBU24 flight status page for this flight to view local times or setup timezone preferences in your user account.

Time Position Orientation Groundspeed Altitude Reporting Facility
EDT Latitude Longitude Course Direction KTS MPH feet Rate Location/Type
Thu 05:23:10 PM 40.6000 -73.8000 304° West 163 188 2,000  Level New York TRACON
Thu 05:24:16 PM 40.5833 -73.7167 105° East 236 272 4,000 2,286 Climbing New York TRACON
Thu 05:25:00 PM 40.8639 -74.0874 311° West  Level FlightAware Approximate
Thu 05:25:16 PM 40.6000 -73.6333 75° East 249 287 6,800  Level New York TRACON
Thu 05:26:00 PM 40.9198 -74.1708 316° Northwest  Level FlightAware Approximate
Thu 05:26:16 PM 40.6667 -73.5833 30° Northeast 257 296 9,200  Level New York TRACON
Thu 05:27:00 PM 40.9803 -74.2484 316° Northwest  Level FlightAware Approximate
Thu 05:27:16 PM 40.7500 -73.6000 351° North 284 327 12,100  Level New York TRACON
Thu 05:28:00 PM 41.0391 -74.3282 304° West  Level FlightAware Approximate
Thu 05:28:16 PM 40.8167 -73.6167 349° North 296 341 14,900  Level New York TRACON
Thu 05:29:16 PM 40.9000 -73.6667 336° Northwest 306 352 17,000 1,050 Climbing New York TRACON
Thu 05:30:16 PM 40.9667 -73.7167 330° Northwest 312 359 17,000  Level New York TRACON
Thu 05:31:16 PM 41.0333 -73.7833 323° Northwest 311 358 17,000  Level New York TRACON
Thu 05:32:16 PM 41.0667 -73.9000 291° West 306 352 17,000  Level New York TRACON
Thu 05:34:17 PM 41.1200 -74.1339 287° West 345 397 17,000  Level New York Center
Thu 05:35:19 PM 41.1517 -74.2594 289° West 356 410 17,000  Level New York Center
Thu 05:36:19 PM 41.1814 -74.3825 288° West 356 410 17,000  Level New York Center
Thu 05:37:17 PM 41.2108 -74.5053 288° West 350 403 17,000  Level New York Center
Thu 05:38:18 PM 41.2508 -74.6206 295° West 350 403 17,000 992 Level New York Center
Thu 05:39:18 PM 41.3064 -74.7094 310° West 345 397 19,000 2,050 Climbing New York Center
Thu 05:40:18 PM 41.3694 -74.8128 309° West 351 404 21,100 1,488 Climbing New York Center
Thu 05:41:19 PM 41.4364 -74.9219 309° West 362 417 22,000 454 Climbing New York Center
Thu 05:42:17 PM 41.4994 -75.0283 308° West 362 417 22,000  Level New York Center
Thu 05:43:19 PM 41.5642 -75.1350 309° West 362 417 22,000  Level New York Center
Thu 05:44:17 PM 41.6308 -75.2419 310° West 362 417 22,000  Level New York Center
Thu 05:45:17 PM 41.6936 -75.3489 308° West 362 417 22,000  Level New York Center
Thu 05:46:19 PM 41.7581 -75.4561 309° West 362 417 22,000  Level New York Center
Thu 05:47:18 PM 41.8203 -75.5636 308° West 362 417 22,000  Level New York Center
Thu 05:48:17 PM 41.8844 -75.6742 308° West 362 417 22,000 -198 Level New York Center
Thu 05:49:19 PM 41.9489 -75.7819 309° West 362 417 21,600 -950 Descending New York Center
Thu 05:50:17 PM 42.0128 -75.8900 309° West 362 417 20,100 -1,300 Descending New York Center
Thu 05:51:19 PM 42.0728 -75.9953 308° West 362 417 19,000 -800 Descending New York Center
Thu 05:52:17 PM 42.1350 -76.0981 309° West 357 411 18,500 -1,261 Descending New York Center
Thu 05:53:18 PM 42.2269 -76.1364 343° North 350 403 16,500 -2,156 Descending New York Center
Thu 05:54:25 PM 42.3428 -76.1203 North 333 383 13,900 -2,242 Descending Boston Center
Thu 05:54:49 PM 42.3783 -76.1139 North 329 379 13,100 -1,912 Descending Boston Center
Thu 05:55:56 PM 42.4811 -76.1003 North 331 381 11,000 -984 Descending Boston Center
Thu 05:56:57 PM 42.5711 -76.0914 North 326 375 11,000 -347 Level Boston Center
Thu 05:57:57 PM 42.6492 -76.1272 341° North 280 322 10,300 -1,339 Descending Boston Center
Thu 05:58:58 PM 42.7139 -76.1819 328° Northwest 266 306 8,300 -1,820 Descending Boston Center
Thu 05:59:59 PM 42.7747 -76.2336 328° Northwest 266 306 6,600 -1,636 Descending Boston Center
Thu 06:00:59 PM 42.8439 -76.2889 330° Northwest 263 303 5,000 -1,289 Descending Boston Center
Thu 06:02:00 PM 42.9044 -76.3436 327° Northwest 258 297 4,000 -787 Descending Boston Center
Thu 06:03:01 PM 42.9653 -76.3931 329° Northwest 254 292 3,400 -496 Descending Boston Center
Thu 06:04:01 PM 43.0261 -76.4425 329° Northwest 251 289 3,000 -198 Descending Boston Center
Thu 06:05:02 PM 43.0847 -76.4975 326° Northwest 254 292 3,000  Level Boston Center
Thu 06:06:02 PM 43.1461 -76.5328 337° Northwest 238 274 3,000  Level Boston Center

Login

Don't have an account? Register now (free) for customized features, flight alerts, and more!